PWSweather.com
Personal Weather Stations
Station Observations
KVTSWANT6
Maquam ShoreCamp Maquam, Swanton, VT 05488

Maquam ShoreCamp MaquamSwanton, VT 05488

Lat: 44.90250015, Lon: -73.16666412

Elevation: 109

Station Type: W-1090

Latest ConditionsUpdated 5:40:00 AM EDT Friday, Aug 1, 2014
Currently Today's Max Today's Min Today's Average
Temperature 63.3°F17.4°C 66.0°F18.9°C 61.2°F16.2°C 63.3°F17.4°C
Dew Point 61.9°F16.6°C 64.3°F17.9°C 60.9°F16.1°C 62.3°F16.8°C
Winds 3.1 mph SE5.0 kmh SE 3.8 mph SE6.1 kmh SE - 2.2 mph 3.5 kmh
Wind Gusts 6.0 mph9.7 kmh 6.9 mph11.1 kmh - -
Humidity 95% 99% 93% 96%
Pressure 30.40 in1029.5 mb 30.40 in1029.5 mb 30.37 in1028.4 mb -
Hour Temp Dew Point Humidity Winds Wind Gusts Pressure Precip Precip Rate Daily Precip Total
05:40 AM 63.3°F17.4°C 61.9°F16.6°C 95% 3.1 mph SE5.0 kmh SE 6.0 mph9.7 kmh 30.40 in1029.5 mb 0.00 in0.0 mm 0.00 in/hr0.0 mm/hr 0.00 in0.0 mm
05:30 AM 63.1°F17.3°C 62.0°F16.7°C 96% 3.1 mph SE5.0 kmh SE 6.9 mph11.1 kmh 30.40 in1029.5 mb 0.00 in0.0 mm 0.00 in/hr0.0 mm/hr 0.00 in0.0 mm
05:20 AM 63.0°F17.2°C 62.1°F16.7°C 97% 3.8 mph SE6.1 kmh SE 6.9 mph11.1 kmh 30.40 in1029.5 mb 0.00 in0.0 mm 0.00 in/hr0.0 mm/hr 0.00 in0.0 mm
05:10 AM 63.0°F17.2°C 61.8°F16.6°C 96% 3.1 mph SE5.0 kmh SE 6.9 mph11.1 kmh 30.40 in1029.5 mb 0.00 in0.0 mm 0.00 in/hr0.0 mm/hr 0.00 in0.0 mm
05:00 AM 63.5°F17.5°C 62.7°F17.1°C 97% Calm Calm 2.2 mph3.5 kmh 30.39 in1029.1 mb 0.00 in0.0 mm 0.00 in/hr0.0 mm/hr 0.00 in0.0 mm
04:50 AM 63.5°F17.5°C 62.4°F16.9°C 96% 1.6 mph SSE2.6 kmh SSE 5.4 mph8.7 kmh 30.39 in1029.1 mb 0.00 in0.0 mm 0.00 in/hr0.0 mm/hr 0.00 in0.0 mm
04:40 AM 63.1°F17.3°C 62.0°F16.7°C 96% 3.1 mph SE5.0 kmh SE 5.4 mph8.7 kmh 30.39 in1029.1 mb 0.00 in0.0 mm 0.00 in/hr0.0 mm/hr 0.00 in0.0 mm
04:30 AM 63.0°F17.2°C 61.8°F16.6°C 96% 2.2 mph SSE3.5 kmh SSE 3.8 mph6.1 kmh 30.39 in1029.1 mb 0.00 in0.0 mm 0.00 in/hr0.0 mm/hr 0.00 in0.0 mm
04:20 AM 63.0°F17.2°C 61.8°F16.6°C 96% 2.2 mph SE3.5 kmh SE 5.4 mph8.7 kmh 30.39 in1029.1 mb 0.00 in0.0 mm 0.00 in/hr0.0 mm/hr 0.00 in0.0 mm
04:10 AM 62.8°F17.1°C 61.9°F16.6°C 97% 3.1 mph SE5.0 kmh SE 5.4 mph8.7 kmh 30.39 in1029.1 mb 0.00 in0.0 mm 0.00 in/hr0.0 mm/hr 0.00 in0.0 mm
04:00 AM 62.8°F17.1°C 61.6°F16.4°C 96% 2.2 mph SE3.5 kmh SE 4.5 mph7.2 kmh 30.39 in1029.1 mb 0.00 in0.0 mm 0.00 in/hr0.0 mm/hr 0.00 in0.0 mm
03:50 AM 63.0°F17.2°C 61.5°F16.4°C 95% 2.2 mph SE3.5 kmh SE 4.5 mph7.2 kmh 30.39 in1029.1 mb 0.00 in0.0 mm 0.00 in/hr0.0 mm/hr 0.00 in0.0 mm
03:40 AM 63.0°F17.2°C 61.5°F16.4°C 95% 2.2 mph SE3.5 kmh SE 4.5 mph7.2 kmh 30.38 in1028.8 mb 0.00 in0.0 mm 0.00 in/hr0.0 mm/hr 0.00 in0.0 mm
03:30 AM 63.3°F17.4°C 61.9°F16.6°C 95% 2.2 mph SE3.5 kmh SE 5.4 mph8.7 kmh 30.38 in1028.8 mb 0.00 in0.0 mm 0.00 in/hr0.0 mm/hr 0.00 in0.0 mm
03:20 AM 63.3°F17.4°C 61.9°F16.6°C 95% 3.1 mph SE5.0 kmh SE 5.4 mph8.7 kmh 30.38 in1028.8 mb 0.00 in0.0 mm 0.00 in/hr0.0 mm/hr 0.00 in0.0 mm
03:10 AM 63.0°F17.2°C 61.8°F16.6°C 96% 2.2 mph SE3.5 kmh SE 4.5 mph7.2 kmh 30.38 in1028.8 mb 0.00 in0.0 mm 0.00 in/hr0.0 mm/hr 0.00 in0.0 mm
03:00 AM 62.4°F16.9°C 61.9°F16.6°C 98% 1.6 mph SE2.6 kmh SE 3.8 mph6.1 kmh 30.38 in1028.8 mb 0.00 in0.0 mm 0.00 in/hr0.0 mm/hr 0.00 in0.0 mm
02:50 AM 62.4°F16.9°C 61.3°F16.3°C 96% 1.6 mph SE2.6 kmh SE 3.8 mph6.1 kmh 30.38 in1028.8 mb 0.00 in0.0 mm 0.00 in/hr0.0 mm/hr 0.00 in0.0 mm
02:40 AM 62.4°F16.9°C 61.9°F16.6°C 98% 2.2 mph SE3.5 kmh SE 3.8 mph6.1 kmh 30.38 in1028.8 mb 0.00 in0.0 mm 0.00 in/hr0.0 mm/hr 0.00 in0.0 mm
02:30 AM 62.2°F16.8°C 62.0°F16.7°C 99% 2.2 mph SE3.5 kmh SE 3.8 mph6.1 kmh 30.38 in1028.8 mb 0.00 in0.0 mm 0.00 in/hr0.0 mm/hr 0.00 in0.0 mm
02:20 AM 61.9°F16.6°C 61.6°F16.4°C 99% 2.2 mph SE3.5 kmh SE 3.8 mph6.1 kmh 30.38 in1028.8 mb 0.00 in0.0 mm 0.00 in/hr0.0 mm/hr 0.00 in0.0 mm
02:10 AM 61.3°F16.3°C 61.1°F16.2°C 99% 2.2 mph SE3.5 kmh SE 3.8 mph6.1 kmh 30.39 in1029.1 mb 0.00 in0.0 mm 0.00 in/hr0.0 mm/hr 0.00 in0.0 mm
02:00 AM 61.2°F16.2°C 60.9°F16.1°C 99% 2.2 mph E3.5 kmh E 3.8 mph6.1 kmh 30.38 in1028.8 mb 0.00 in0.0 mm 0.00 in/hr0.0 mm/hr 0.00 in0.0 mm
01:50 AM 61.2°F16.2°C 60.9°F16.1°C 99% 2.2 mph E3.5 kmh E 3.8 mph6.1 kmh 30.38 in1028.8 mb 0.00 in0.0 mm 0.00 in/hr0.0 mm/hr 0.00 in0.0 mm
01:40 AM 61.9°F16.6°C 61.6°F16.4°C 99% 1.6 mph E2.6 kmh E 3.8 mph6.1 kmh 30.38 in1028.8 mb 0.00 in0.0 mm 0.00 in/hr0.0 mm/hr 0.00 in0.0 mm
01:30 AM 62.6°F17.0°C 62.3°F16.8°C 99% 2.2 mph E3.5 kmh E 3.8 mph6.1 kmh 30.38 in1028.8 mb 0.00 in0.0 mm 0.00 in/hr0.0 mm/hr 0.00 in0.0 mm
01:20 AM 63.7°F17.6°C 63.1°F17.3°C 98% 2.2 mph SE3.5 kmh SE 3.8 mph6.1 kmh 30.38 in1028.8 mb 0.00 in0.0 mm 0.00 in/hr0.0 mm/hr 0.00 in0.0 mm
01:10 AM 64.4°F18.0°C 63.6°F17.6°C 97% 1.6 mph SE2.6 kmh SE 3.8 mph6.1 kmh 30.37 in1028.4 mb 0.00 in0.0 mm 0.00 in/hr0.0 mm/hr 0.00 in0.0 mm
01:00 AM 65.1°F18.4°C 64.0°F17.8°C 96% 1.6 mph SE2.6 kmh SE 3.8 mph6.1 kmh 30.37 in1028.4 mb 0.00 in0.0 mm 0.00 in/hr0.0 mm/hr 0.00 in0.0 mm
12:50 AM 65.5°F18.6°C 64.3°F17.9°C 96% 1.6 mph SE2.6 kmh SE 4.5 mph7.2 kmh 30.38 in1028.8 mb 0.00 in0.0 mm 0.00 in/hr0.0 mm/hr 0.00 in0.0 mm
12:40 AM 65.5°F18.6°C 64.0°F17.8°C 95% 1.6 mph SE2.6 kmh SE 3.8 mph6.1 kmh 30.37 in1028.4 mb 0.00 in0.0 mm 0.00 in/hr0.0 mm/hr 0.00 in0.0 mm
12:30 AM 65.3°F18.5°C 63.6°F17.6°C 94% 1.6 mph SE2.6 kmh SE 4.5 mph7.2 kmh 30.38 in1028.8 mb 0.00 in0.0 mm 0.00 in/hr0.0 mm/hr 0.00 in0.0 mm
12:20 AM 65.7°F18.7°C 63.6°F17.6°C 93% 1.6 mph SSE2.6 kmh SSE 4.5 mph7.2 kmh 30.38 in1028.8 mb 0.00 in0.0 mm 0.00 in/hr0.0 mm/hr 0.00 in0.0 mm
12:10 AM 66.0°F18.9°C 64.0°F17.8°C 93% 2.2 mph SSE3.5 kmh SSE 5.4 mph8.7 kmh 30.38 in1028.8 mb 0.00 in0.0 mm 0.00 in/hr0.0 mm/hr 0.00 in0.0 mm
12:00 AM 65.5°F18.6°C 63.4°F17.4°C 93% 2.2 mph SE3.5 kmh SE 6.0 mph9.7 kmh 30.38 in1028.8 mb 0.00 in0.0 mm 0.00 in/hr0.0 mm/hr 0.00 in0.0 mm